createdAt,value
2023-05-03T00:01:00.792Z,4.40
2023-05-03T00:06:12.673Z,4.50
2023-05-03T00:11:13.940Z,4.80
2023-05-03T00:16:15.248Z,4.53
2023-05-03T00:21:16.696Z,4.60
2023-05-03T00:26:17.950Z,4.13
2023-05-03T00:31:19.749Z,5.10
2023-05-03T00:36:21.108Z,4.97
2023-05-03T00:41:23.700Z,4.63
2023-05-03T00:46:25.127Z,4.70
2023-05-03T00:51:27.566Z,4.70
2023-05-03T00:56:33.026Z,4.60
2023-05-03T01:01:39.395Z,4.43
2023-05-03T01:06:52.292Z,4.50
2023-05-03T01:12:05.807Z,4.43
2023-05-03T01:17:14.807Z,4.70
2023-05-03T01:22:37.971Z,4.67
2023-05-03T01:27:40.675Z,4.40
2023-05-03T01:33:04.242Z,4.60
2023-05-03T01:38:07.155Z,5.30
2023-05-03T01:43:15.293Z,4.70
2023-05-03T01:48:18.910Z,4.37
2023-05-03T01:53:20.457Z,4.60
2023-05-03T01:58:21.775Z,4.40
2023-05-03T02:03:23.546Z,5.30
2023-05-03T02:08:25.064Z,5.50
2023-05-03T02:13:26.332Z,5.13
2023-05-03T02:18:30.675Z,5.30
2023-05-03T02:23:31.949Z,4.97
2023-05-03T02:28:33.824Z,5.43
2023-05-03T02:33:35.046Z,5.70
2023-05-03T02:38:36.377Z,5.27
2023-05-03T02:43:37.995Z,4.77
2023-05-03T02:48:39.701Z,5.00
2023-05-03T02:53:41.235Z,5.03
2023-05-03T02:58:42.826Z,5.57
2023-05-03T03:03:45.588Z,5.67
2023-05-03T03:08:47.258Z,4.90
2023-05-03T03:13:49.089Z,4.77
2023-05-03T03:18:50.667Z,5.00
2023-05-03T03:23:52.157Z,4.87
2023-05-03T03:28:53.770Z,5.33
2023-05-03T03:33:55.300Z,5.33
2023-05-03T03:38:57.877Z,5.10
2023-05-03T03:44:00.650Z,5.20
2023-05-03T03:49:02.331Z,5.30
2023-05-03T03:54:05.361Z,5.23
2023-05-03T03:59:10.871Z,5.47
2023-05-03T04:04:12.689Z,5.23
2023-05-03T04:09:16.518Z,5.70
2023-05-03T04:14:19.116Z,5.20
2023-05-03T04:19:22.048Z,5.83
2023-05-03T04:24:23.307Z,5.10
2023-05-03T04:29:24.908Z,5.57
2023-05-03T04:34:26.311Z,5.97
2023-05-03T04:39:30.289Z,5.57
2023-05-03T04:44:32.436Z,5.63
2023-05-03T04:49:34.187Z,6.20
2023-05-03T04:54:35.473Z,6.37
2023-05-03T04:59:36.910Z,6.70
2023-05-03T05:04:38.499Z,6.87
2023-05-03T05:09:40.174Z,7.57
2023-05-03T05:14:41.742Z,6.93
2023-05-03T05:19:44.025Z,6.47
2023-05-03T05:24:45.696Z,8.27
2023-05-03T05:29:48.295Z,6.90
2023-05-03T05:34:54.683Z,7.07
2023-05-03T05:39:58.055Z,6.30
2023-05-03T05:45:03.312Z,6.83
2023-05-03T05:50:17.088Z,6.50
2023-05-03T05:55:24.274Z,6.60
2023-05-03T06:00:26.683Z,6.03
2023-05-03T06:05:28.670Z,5.77
2023-05-03T06:10:30.149Z,5.73
2023-05-03T06:15:32.612Z,5.53
2023-05-03T06:20:34.082Z,6.17
2023-05-03T06:25:36.315Z,6.87
2023-05-03T06:30:38.556Z,5.43
2023-05-03T06:35:46.769Z,6.30
2023-05-03T06:40:50.487Z,6.57
2023-05-03T06:45:54.788Z,6.83
2023-05-03T06:50:56.229Z,6.80
2023-05-03T06:55:57.826Z,6.53
2023-05-03T07:00:59.248Z,6.27
2023-05-03T07:06:01.163Z,6.77
2023-05-03T07:11:03.640Z,7.50
2023-05-03T07:16:05.189Z,7.10
2023-05-03T07:21:08.673Z,8.77
2023-05-03T07:26:10.627Z,7.63
2023-05-03T07:31:12.026Z,7.53
2023-05-03T07:36:13.530Z,8.70
2023-05-03T07:41:14.874Z,8.07
2023-05-03T07:46:16.374Z,8.93
2023-05-03T07:51:17.900Z,9.53
2023-05-03T07:56:19.112Z,8.93
2023-05-03T08:01:23.293Z,9.07
2023-05-03T08:06:25.305Z,8.43
2023-05-03T08:11:28.176Z,8.55
2023-05-03T08:16:30.385Z,7.78
2023-05-03T08:21:32.625Z,9.60
2023-05-03T08:26:35.290Z,8.43
2023-05-03T08:31:36.756Z,8.05
2023-05-03T08:36:38.513Z,10.00
2023-05-03T08:41:40.213Z,9.40
2023-05-03T08:46:42.722Z,9.45
2023-05-03T08:51:49.023Z,9.57
2023-05-03T08:56:50.565Z,9.43
2023-05-03T09:01:53.680Z,9.60
2023-05-03T09:07:07.502Z,8.45
2023-05-03T09:12:08.882Z,8.45
2023-05-03T09:17:15.916Z,8.95
2023-05-03T09:22:17.713Z,8.43
2023-05-03T09:27:20.813Z,9.18
2023-05-03T09:32:22.283Z,8.80
2023-05-03T09:37:37.897Z,9.20
2023-05-03T09:42:42.994Z,7.95
2023-05-03T09:47:51.765Z,8.77
2023-05-03T09:52:54.991Z,8.35
2023-05-03T09:57:57.028Z,9.35
2023-05-03T10:03:00.318Z,9.55
2023-05-03T10:08:04.654Z,9.00
2023-05-03T10:13:06.265Z,9.27
2023-05-03T10:18:10.225Z,8.88
2023-05-03T10:23:13.161Z,8.55
2023-05-03T10:28:14.897Z,8.60
2023-05-03T10:33:16.260Z,8.50
2023-05-03T10:38:20.925Z,8.02
2023-05-03T10:43:31.399Z,8.85
2023-05-03T10:48:34.016Z,9.02
2023-05-03T10:53:37.645Z,9.50
2023-05-03T10:58:47.925Z,8.73
2023-05-03T11:04:09.900Z,8.43
2023-05-03T11:09:13.999Z,10.15
2023-05-03T11:14:16.234Z,10.05
2023-05-03T11:19:17.728Z,10.00
2023-05-03T11:24:19.071Z,9.13
2023-05-03T11:29:21.207Z,9.35
2023-05-03T11:34:22.401Z,9.32
2023-05-03T11:39:23.665Z,9.65
2023-05-03T11:44:25.042Z,9.02
2023-05-03T11:49:26.508Z,9.50
2023-05-03T11:54:28.332Z,8.55
2023-05-03T11:59:38.205Z,9.00
2023-05-03T12:04:42.105Z,10.00
2023-05-03T12:10:26.038Z,8.55
2023-05-03T12:15:36.884Z,9.73
2023-05-03T12:25:47.674Z,8.30
2023-05-03T12:30:53.205Z,7.97
2023-05-03T12:35:58.273Z,8.68
2023-05-03T12:41:00.552Z,9.20
2023-05-03T12:46:28.239Z,8.70
2023-05-03T12:51:26.257Z,8.32
2023-05-03T12:56:32.158Z,8.32
2023-05-03T13:06:43.060Z,7.85
2023-05-03T13:11:49.238Z,8.25
2023-05-03T13:16:51.750Z,7.85
2023-05-03T13:21:53.569Z,8.55
2023-05-03T13:26:54.813Z,8.75
2023-05-03T13:31:56.007Z,8.95
2023-05-03T13:36:57.587Z,8.48
2023-05-03T13:41:58.977Z,8.52
2023-05-03T13:47:00.877Z,8.55
2023-05-03T13:52:02.652Z,8.90
2023-05-03T13:57:03.988Z,8.30
2023-05-03T14:02:05.788Z,8.38
2023-05-03T14:07:07.119Z,7.80
2023-05-03T14:12:08.617Z,8.48
2023-05-03T14:17:10.536Z,8.18
2023-05-03T14:22:11.891Z,8.95
2023-05-03T14:27:13.649Z,7.47
2023-05-03T14:32:15.448Z,7.65
2023-05-03T14:37:16.826Z,8.85
2023-05-03T14:42:18.131Z,7.90
2023-05-03T14:47:19.448Z,7.35
2023-05-03T14:52:20.770Z,7.68
2023-05-03T14:57:22.100Z,7.63
2023-05-03T15:02:23.676Z,7.75
2023-05-03T15:07:24.936Z,6.65
2023-05-03T15:12:26.599Z,6.45
2023-05-03T15:17:29.103Z,6.50
2023-05-03T15:22:30.418Z,6.70
2023-05-03T15:27:31.722Z,6.43
2023-05-03T15:32:33.140Z,7.00
2023-05-03T15:37:36.754Z,6.88
2023-05-03T15:42:38.685Z,7.60
2023-05-03T15:47:40.184Z,6.20
2023-05-03T15:52:41.564Z,6.65
2023-05-03T15:57:42.878Z,6.30
2023-05-03T16:02:44.105Z,6.20
2023-05-03T16:07:46.001Z,7.20
2023-05-03T16:12:47.663Z,6.57
2023-05-03T16:17:49.150Z,6.68
2023-05-03T16:22:52.515Z,6.75
2023-05-03T16:27:54.008Z,6.50
2023-05-03T16:32:55.372Z,7.15
2023-05-03T16:37:56.763Z,6.57
2023-05-03T16:42:58.142Z,6.80
2023-05-03T16:48:00.380Z,7.47
2023-05-03T16:53:03.432Z,6.60
2023-05-03T16:58:05.418Z,6.50
2023-05-03T17:03:07.463Z,6.63
2023-05-03T17:08:08.970Z,6.60
2023-05-03T17:13:10.888Z,7.80
2023-05-03T17:18:12.294Z,7.22
2023-05-03T17:23:13.553Z,7.03
2023-05-03T17:28:14.720Z,7.00
2023-05-03T17:33:16.062Z,6.68
2023-05-03T17:38:17.672Z,6.35
2023-05-03T17:43:19.028Z,6.55
2023-05-03T17:48:20.299Z,6.25
2023-05-03T17:53:21.465Z,6.97
2023-05-03T17:58:23.134Z,6.85
2023-05-03T18:03:25.040Z,6.97
2023-05-03T18:08:26.189Z,6.72
2023-05-03T18:13:28.024Z,6.20
2023-05-03T18:18:29.429Z,6.38
2023-05-03T18:23:31.723Z,6.55
2023-05-03T18:28:34.167Z,7.30
2023-05-03T18:33:35.340Z,7.07
2023-05-03T18:38:37.811Z,6.78
2023-05-03T18:43:43.183Z,6.75
2023-05-03T18:48:45.332Z,6.57
2023-05-03T18:53:46.687Z,6.33
2023-05-03T18:58:48.120Z,5.90
2023-05-03T19:03:49.403Z,5.70
2023-05-03T19:08:50.912Z,5.97
2023-05-03T19:13:52.606Z,6.80
2023-05-03T19:18:54.738Z,5.97
2023-05-03T19:23:56.292Z,6.13
2023-05-03T19:28:57.596Z,5.83
2023-05-03T19:33:58.818Z,6.27
2023-05-03T19:39:02.782Z,5.93
2023-05-03T19:44:04.737Z,6.10
2023-05-03T19:49:06.476Z,5.20
2023-05-03T19:54:08.544Z,5.50
2023-05-03T19:59:10.670Z,5.30
2023-05-03T20:04:11.951Z,5.50
2023-05-03T20:09:13.192Z,6.00
2023-05-03T20:14:15.335Z,6.10
2023-05-03T20:19:17.502Z,5.97
2023-05-03T20:24:20.293Z,5.90
2023-05-03T20:29:21.459Z,7.20
2023-05-03T20:34:22.723Z,7.07
2023-05-03T20:39:24.037Z,6.40
2023-05-03T20:44:25.687Z,6.47
2023-05-03T20:49:27.062Z,6.70
2023-05-03T20:54:28.368Z,6.60
2023-05-03T20:59:30.373Z,6.30
2023-05-03T21:04:31.689Z,6.00
2023-05-03T21:09:33.041Z,6.33
2023-05-03T21:14:34.258Z,6.60
2023-05-03T21:19:35.422Z,6.73
2023-05-03T21:24:36.614Z,6.20
2023-05-03T21:29:38.033Z,6.67
2023-05-03T21:34:39.464Z,6.50
2023-05-03T21:39:40.840Z,6.67
2023-05-03T21:44:46.772Z,6.40
2023-05-03T21:49:48.094Z,7.07
2023-05-03T21:54:49.411Z,6.80
2023-05-03T21:59:53.139Z,6.20
2023-05-03T22:04:54.401Z,6.97
2023-05-03T22:09:55.532Z,7.20
2023-05-03T22:14:57.012Z,6.47
2023-05-03T22:19:58.357Z,6.70
2023-05-03T22:25:00.149Z,7.10
2023-05-03T22:30:01.614Z,7.03
2023-05-03T22:35:03.774Z,6.63
2023-05-03T22:40:06.159Z,6.43
2023-05-03T22:45:08.338Z,6.93
2023-05-03T22:50:10.131Z,7.23
2023-05-03T22:55:11.344Z,7.33
2023-05-03T23:00:13.084Z,7.30
2023-05-03T23:05:15.071Z,6.73
2023-05-03T23:10:16.640Z,6.60
2023-05-03T23:15:18.116Z,6.50
2023-05-03T23:20:19.435Z,7.63
2023-05-03T23:25:20.855Z,6.97
2023-05-03T23:30:22.236Z,7.30
2023-05-03T23:35:24.117Z,7.33
2023-05-03T23:40:25.279Z,6.90
2023-05-03T23:45:26.702Z,7.13
2023-05-03T23:50:28.074Z,6.53
2023-05-03T23:55:29.490Z,7.43
